sensor_id;sensor_type;location;lat;lon;timestamp;pressure;altitude;pressure_sealevel;temperature;humidity
11487;BME280;10510;47.942;9.442;2024-03-08T00:01:31;94306.34;;;-0.43;100.00
11487;BME280;10510;47.942;9.442;2024-03-08T00:04:33;94312.53;;;-0.46;100.00
11487;BME280;10510;47.942;9.442;2024-03-08T00:06:33;94304.13;;;-0.48;100.00
11487;BME280;10510;47.942;9.442;2024-03-08T00:08:33;94312.91;;;-0.51;100.00
11487;BME280;10510;47.942;9.442;2024-03-08T00:10:34;94313.16;;;-0.54;100.00
11487;BME280;10510;47.942;9.442;2024-03-08T00:12:35;94304.78;;;-0.56;100.00
11487;BME280;10510;47.942;9.442;2024-03-08T00:14:35;94313.41;;;-0.57;100.00
11487;BME280;10510;47.942;9.442;2024-03-08T00:16:37;94316.91;;;-0.58;100.00
11487;BME280;10510;47.942;9.442;2024-03-08T00:18:38;94312.03;;;-0.61;100.00
11487;BME280;10510;47.942;9.442;2024-03-08T00:20:39;94312.28;;;-0.64;100.00
11487;BME280;10510;47.942;9.442;2024-03-08T00:22:39;94311.56;;;-0.66;100.00
11487;BME280;10510;47.942;9.442;2024-03-08T00:24:39;94313.44;;;-0.68;100.00
11487;BME280;10510;47.942;9.442;2024-03-08T00:26:40;94312.78;;;-0.70;100.00
11487;BME280;10510;47.942;9.442;2024-03-08T00:28:42;94305.19;;;-0.72;100.00
11487;BME280;10510;47.942;9.442;2024-03-08T00:30:43;94306.22;;;-0.74;100.00
11487;BME280;10510;47.942;9.442;2024-03-08T00:32:43;94303.81;;;-0.76;100.00
11487;BME280;10510;47.942;9.442;2024-03-08T00:34:44;94300.44;;;-0.76;100.00
11487;BME280;10510;47.942;9.442;2024-03-08T00:36:44;94292.97;;;-0.79;100.00
11487;BME280;10510;47.942;9.442;2024-03-08T00:41:06;94290.88;;;-0.85;100.00
11487;BME280;10510;47.942;9.442;2024-03-08T00:43:07;94294.53;;;-0.88;100.00
11487;BME280;10510;47.942;9.442;2024-03-08T00:45:10;94289.63;;;-0.91;100.00
11487;BME280;10510;47.942;9.442;2024-03-08T00:47:11;94284.84;;;-0.96;100.00
11487;BME280;10510;47.942;9.442;2024-03-08T00:49:11;94291.75;;;-0.96;100.00
11487;BME280;10510;47.942;9.442;2024-03-08T00:51:12;94287.78;;;-1.00;100.00
11487;BME280;10510;47.942;9.442;2024-03-08T00:53:13;94284.53;;;-1.02;100.00
11487;BME280;10510;47.942;9.442;2024-03-08T00:55:13;94295.84;;;-1.05;100.00
11487;BME280;10510;47.942;9.442;2024-03-08T00:57:13;94297.72;;;-1.07;100.00
11487;BME280;10510;47.942;9.442;2024-03-08T00:59:14;94288.41;;;-1.08;100.00
11487;BME280;10510;47.942;9.442;2024-03-08T01:01:14;94283.28;;;-1.08;100.00
11487;BME280;10510;47.942;9.442;2024-03-08T01:03:17;94288.66;;;-1.11;100.00
11487;BME280;10510;47.942;9.442;2024-03-08T01:05:18;94280.25;;;-1.13;100.00
11487;BME280;10510;47.942;9.442;2024-03-08T01:07:19;94289.00;;;-1.16;100.00
11487;BME280;10510;47.942;9.442;2024-03-08T01:09:19;94292.59;;;-1.18;100.00
11487;BME280;10510;47.942;9.442;2024-03-08T01:11:21;94286.66;;;-1.19;100.00
11487;BME280;10510;47.942;9.442;2024-03-08T01:13:22;94280.84;;;-1.21;100.00
11487;BME280;10510;47.942;9.442;2024-03-08T01:15:23;94271.53;;;-1.22;100.00
11487;BME280;10510;47.942;9.442;2024-03-08T01:17:23;94279.91;;;-1.20;100.00
11487;BME280;10510;47.942;9.442;2024-03-08T01:19:24;94263.97;;;-1.23;100.00
11487;BME280;10510;47.942;9.442;2024-03-08T01:21:25;94264.22;;;-1.26;100.00
11487;BME280;10510;47.942;9.442;2024-03-08T01:23:25;94278.19;;;-1.30;100.00
11487;BME280;10510;47.942;9.442;2024-03-08T01:25:25;94271.69;;;-1.34;100.00
11487;BME280;10510;47.942;9.442;2024-03-08T01:27:26;94265.16;;;-1.39;100.00
11487;BME280;10510;47.942;9.442;2024-03-08T01:32:17;94257.03;;;-1.44;100.00
11487;BME280;10510;47.942;9.442;2024-03-08T01:34:19;94248.63;;;-1.46;100.00
11487;BME280;10510;47.942;9.442;2024-03-08T01:36:19;94251.19;;;-1.46;100.00
11487;BME280;10510;47.942;9.442;2024-03-08T01:38:20;94240.22;;;-1.48;100.00
11487;BME280;10510;47.942;9.442;2024-03-08T01:40:21;94228.34;;;-1.49;100.00
11487;BME280;10510;47.942;9.442;2024-03-08T01:42:22;94236.84;;;-1.48;100.00
11487;BME280;10510;47.942;9.442;2024-03-08T01:44:23;94240.38;;;-1.49;100.00
11487;BME280;10510;47.942;9.442;2024-03-08T01:46:24;94231.63;;;-1.47;100.00
11487;BME280;10510;47.942;9.442;2024-03-08T01:48:24;94231.38;;;-1.44;100.00
11487;BME280;10510;47.942;9.442;2024-03-08T01:50:25;94223.81;;;-1.45;100.00
11487;BME280;10510;47.942;9.442;2024-03-08T01:52:25;94230.69;;;-1.46;100.00
11487;BME280;10510;47.942;9.442;2024-03-08T01:54:26;94225.66;;;-1.47;100.00
11487;BME280;10510;47.942;9.442;2024-03-08T01:56:27;94223.22;;;-1.49;100.00
11487;BME280;10510;47.942;9.442;2024-03-08T01:58:28;94223.22;;;-1.49;100.00
11487;BME280;10510;47.942;9.442;2024-03-08T02:00:29;94221.84;;;-1.53;100.00
11487;BME280;10510;47.942;9.442;2024-03-08T02:02:31;94218.59;;;-1.55;100.00
11487;BME280;10510;47.942;9.442;2024-03-08T02:04:32;94216.50;;;-1.61;100.00
11487;BME280;10510;47.942;9.442;2024-03-08T02:06:32;94215.22;;;-1.67;100.00
11487;BME280;10510;47.942;9.442;2024-03-08T02:08:33;94211.97;;;-1.69;100.00
11487;BME280;10510;47.942;9.442;2024-03-08T02:10:34;94207.88;;;-1.71;100.00
11487;BME280;10510;47.942;9.442;2024-03-08T02:12:35;94213.16;;;-1.73;100.00
11487;BME280;10510;47.942;9.442;2024-03-08T02:14:36;94214.06;;;-1.74;100.00
11487;BME280;10510;47.942;9.442;2024-03-08T02:16:36;94208.38;;;-1.77;100.00
11487;BME280;10510;47.942;9.442;2024-03-08T02:18:38;94207.47;;;-1.76;100.00
11487;BME280;10510;47.942;9.442;2024-03-08T02:20:39;94209.19;;;-1.77;100.00
11487;BME280;10510;47.942;9.442;2024-03-08T02:22:40;94209.31;;;-1.78;100.00
11487;BME280;10510;47.942;9.442;2024-03-08T02:24:40;94208.84;;;-1.84;100.00
11487;BME280;10510;47.942;9.442;2024-03-08T02:26:41;94206.88;;;-1.91;100.00
11487;BME280;10510;47.942;9.442;2024-03-08T02:28:44;94198.75;;;-1.96;100.00
11487;BME280;10510;47.942;9.442;2024-03-08T02:30:45;94203.16;;;-1.98;100.00
11487;BME280;10510;47.942;9.442;2024-03-08T02:32:49;94197.34;;;-2.00;100.00
11487;BME280;10510;47.942;9.442;2024-03-08T02:34:49;94204.09;;;-1.99;100.00
11487;BME280;10510;47.942;9.442;2024-03-08T02:36:50;94195.38;;;-1.97;100.00
11487;BME280;10510;47.942;9.442;2024-03-08T02:38:50;94194.44;;;-1.96;100.00
11487;BME280;10510;47.942;9.442;2024-03-08T02:40:52;94198.38;;;-1.92;100.00
11487;BME280;10510;47.942;9.442;2024-03-08T02:42:52;94186.16;;;-1.88;100.00
11487;BME280;10510;47.942;9.442;2024-03-08T02:44:53;94186.84;;;-1.86;100.00
11487;BME280;10510;47.942;9.442;2024-03-08T02:46:53;94190.81;;;-1.82;100.00
11487;BME280;10510;47.942;9.442;2024-03-08T02:48:55;94177.75;;;-1.79;100.00
11487;BME280;10510;47.942;9.442;2024-03-08T02:50:55;94185.78;;;-1.72;100.00
11487;BME280;10510;47.942;9.442;2024-03-08T02:52:56;94183.44;;;-1.64;100.00
11487;BME280;10510;47.942;9.442;2024-03-08T02:54:56;94180.63;;;-1.61;100.00
11487;BME280;10510;47.942;9.442;2024-03-08T02:56:56;94179.34;;;-1.55;100.00
11487;BME280;10510;47.942;9.442;2024-03-08T02:58:57;94173.81;;;-1.51;100.00
11487;BME280;10510;47.942;9.442;2024-03-08T03:00:57;94177.78;;;-1.47;100.00
11487;BME280;10510;47.942;9.442;2024-03-08T03:02:58;94172.28;;;-1.42;100.00
11487;BME280;10510;47.942;9.442;2024-03-08T03:04:58;94167.72;;;-1.39;100.00
11487;BME280;10510;47.942;9.442;2024-03-08T03:06:58;94159.78;;;-1.35;100.00
11487;BME280;10510;47.942;9.442;2024-03-08T03:08:59;94164.56;;;-1.31;100.00
11487;BME280;10510;47.942;9.442;2024-03-08T03:10:59;94161.88;;;-1.29;100.00
11487;BME280;10510;47.942;9.442;2024-03-08T03:12:59;94163.25;;;-1.25;100.00
11487;BME280;10510;47.942;9.442;2024-03-08T03:15:00;94165.56;;;-1.22;100.00
11487;BME280;10510;47.942;9.442;2024-03-08T03:17:00;94166.03;;;-1.17;100.00
11487;BME280;10510;47.942;9.442;2024-03-08T03:19:02;94163.31;;;-1.16;100.00
11487;BME280;10510;47.942;9.442;2024-03-08T03:21:05;94162.16;;;-1.11;100.00
11487;BME280;10510;47.942;9.442;2024-03-08T03:23:08;94166.06;;;-1.07;100.00
11487;BME280;10510;47.942;9.442;2024-03-08T03:25:09;94163.41;;;-1.06;100.00
11487;BME280;10510;47.942;9.442;2024-03-08T03:27:09;94156.53;;;-1.05;100.00
11487;BME280;10510;47.942;9.442;2024-03-08T03:29:13;94162.22;;;-1.02;100.00
11487;BME280;10510;47.942;9.442;2024-03-08T03:31:13;94163.81;;;-1.01;100.00
11487;BME280;10510;47.942;9.442;2024-03-08T03:33:14;94160.19;;;-0.98;100.00
11487;BME280;10510;47.942;9.442;2024-03-08T03:35:20;94161.81;;;-0.97;100.00
11487;BME280;10510;47.942;9.442;2024-03-08T03:37:20;94153.19;;;-0.96;100.00
11487;BME280;10510;47.942;9.442;2024-03-08T03:39:22;94156.47;;;-0.94;100.00
11487;BME280;10510;47.942;9.442;2024-03-08T03:41:22;94148.88;;;-0.96;100.00
11487;BME280;10510;47.942;9.442;2024-03-08T03:43:23;94149.44;;;-0.92;100.00
11487;BME280;10510;47.942;9.442;2024-03-08T03:45:24;94155.13;;;-0.88;100.00
11487;BME280;10510;47.942;9.442;2024-03-08T03:47:25;94145.81;;;-0.89;100.00
11487;BME280;10510;47.942;9.442;2024-03-08T03:49:27;94145.69;;;-0.88;100.00
11487;BME280;10510;47.942;9.442;2024-03-08T03:51:29;94148.13;;;-0.86;100.00
11487;BME280;10510;47.942;9.442;2024-03-08T03:53:30;94148.13;;;-0.86;100.00
11487;BME280;10510;47.942;9.442;2024-03-08T03:55:30;94139.63;;;-0.87;100.00
11487;BME280;10510;47.942;9.442;2024-03-08T03:57:31;94138.66;;;-0.86;100.00
11487;BME280;10510;47.942;9.442;2024-03-08T03:59:31;94141.13;;;-0.84;100.00
11487;BME280;10510;47.942;9.442;2024-03-08T04:01:33;94141.69;;;-0.81;100.00
11487;BME280;10510;47.942;9.442;2024-03-08T04:03:34;94133.88;;;-0.79;100.00
11487;BME280;10510;47.942;9.442;2024-03-08T04:05:34;94131.97;;;-0.77;100.00
11487;BME280;10510;47.942;9.442;2024-03-08T04:07:35;94132.78;;;-0.77;100.00
11487;BME280;10510;47.942;9.442;2024-03-08T04:09:35;94142.22;;;-0.77;100.00
11487;BME280;10510;47.942;9.442;2024-03-08T04:11:36;94138.75;;;-0.76;100.00
11487;BME280;10510;47.942;9.442;2024-03-08T04:13:36;94136.03;;;-0.75;100.00
11487;BME280;10510;47.942;9.442;2024-03-08T04:15:37;94131.72;;;-0.74;100.00
11487;BME280;10510;47.942;9.442;2024-03-08T04:17:38;94130.66;;;-0.72;100.00
11487;BME280;10510;47.942;9.442;2024-03-08T04:19:38;94127.97;;;-0.70;100.00
11487;BME280;10510;47.942;9.442;2024-03-08T04:21:39;94120.94;;;-0.68;100.00
11487;BME280;10510;47.942;9.442;2024-03-08T04:23:40;94120.94;;;-0.68;100.00
11487;BME280;10510;47.942;9.442;2024-03-08T04:25:40;94121.06;;;-0.70;100.00
11487;BME280;10510;47.942;9.442;2024-03-08T04:27:42;94121.19;;;-0.71;100.00
11487;BME280;10510;47.942;9.442;2024-03-08T04:29:42;94130.53;;;-0.70;100.00
11487;BME280;10510;47.942;9.442;2024-03-08T04:31:43;94119.47;;;-0.71;100.00
11487;BME280;10510;47.942;9.442;2024-03-08T04:33:43;94116.75;;;-0.69;100.00
11487;BME280;10510;47.942;9.442;2024-03-08T04:35:45;94119.31;;;-0.69;100.00
11487;BME280;10510;47.942;9.442;2024-03-08T04:37:46;94117.44;;;-0.67;100.00
11487;BME280;10510;47.942;9.442;2024-03-08T04:39:46;94114.72;;;-0.65;100.00
11487;BME280;10510;47.942;9.442;2024-03-08T04:41:47;94110.41;;;-0.65;100.00
11487;BME280;10510;47.942;9.442;2024-03-08T04:43:47;94110.41;;;-0.65;100.00
11487;BME280;10510;47.942;9.442;2024-03-08T04:45:48;94106.38;;;-0.67;100.00
11487;BME280;10510;47.942;9.442;2024-03-08T04:47:48;94107.84;;;-0.65;100.00
11487;BME280;10510;47.942;9.442;2024-03-08T04:49:49;94108.78;;;-0.66;100.00
11487;BME280;10510;47.942;9.442;2024-03-08T04:51:50;94108.94;;;-0.67;100.00
11487;BME280;10510;47.942;9.442;2024-03-08T04:53:50;94106.38;;;-0.67;100.00
11487;BME280;10510;47.942;9.442;2024-03-08T04:55:51;94106.38;;;-0.67;100.00
11487;BME280;10510;47.942;9.442;2024-03-08T04:57:51;94102.03;;;-0.67;100.00
11487;BME280;10510;47.942;9.442;2024-03-08T04:59:53;94095.25;;;-0.68;100.00
11487;BME280;10510;47.942;9.442;2024-03-08T05:01:53;94096.09;;;-0.67;100.00
11487;BME280;10510;47.942;9.442;2024-03-08T05:03:53;94092.84;;;-0.70;100.00
11487;BME280;10510;47.942;9.442;2024-03-08T05:05:55;94109.03;;;-0.69;100.00
11487;BME280;10510;47.942;9.442;2024-03-08T05:07:56;94099.03;;;-0.72;100.00
11487;BME280;10510;47.942;9.442;2024-03-08T05:09:56;94110.25;;;-0.73;100.00
11487;BME280;10510;47.942;9.442;2024-03-08T05:11:57;94103.63;;;-0.76;100.00
11487;BME280;10510;47.942;9.442;2024-03-08T05:13:59;94107.81;;;-0.75;100.00
11487;BME280;10510;47.942;9.442;2024-03-08T05:16:00;94102.81;;;-0.76;100.00
11487;BME280;10510;47.942;9.442;2024-03-08T05:18:00;94101.84;;;-0.75;100.00
11487;BME280;10510;47.942;9.442;2024-03-08T05:20:01;94103.34;;;-0.73;100.00
11487;BME280;10510;47.942;9.442;2024-03-08T05:22:02;94100.91;;;-0.74;100.00
11487;BME280;10510;47.942;9.442;2024-03-08T05:24:03;94098.47;;;-0.76;100.00
11487;BME280;10510;47.942;9.442;2024-03-08T05:26:05;94100.63;;;-0.81;100.00
11487;BME280;10510;47.942;9.442;2024-03-08T05:28:05;94110.06;;;-0.81;100.00
11487;BME280;10510;47.942;9.442;2024-03-08T05:30:06;94099.81;;;-0.81;100.00
11487;BME280;10510;47.942;9.442;2024-03-08T05:32:06;94099.66;;;-0.80;100.00
11487;BME280;10510;47.942;9.442;2024-03-08T05:34:07;94094.53;;;-0.80;100.00
11487;BME280;10510;47.942;9.442;2024-03-08T05:36:10;94100.75;;;-0.82;100.00
11487;BME280;10510;47.942;9.442;2024-03-08T05:38:11;94095.84;;;-0.85;100.00
11487;BME280;10510;47.942;9.442;2024-03-08T05:40:13;94094.94;;;-0.84;100.00
11487;BME280;10510;47.942;9.442;2024-03-08T05:42:13;94096.69;;;-0.85;100.00
11487;BME280;10510;47.942;9.442;2024-03-08T05:44:13;94091.66;;;-0.86;100.00
11487;BME280;10510;47.942;9.442;2024-03-08T05:46:15;94094.38;;;-0.88;100.00
11487;BME280;10510;47.942;9.442;2024-03-08T05:48:16;94095.84;;;-0.85;100.00
11487;BME280;10510;47.942;9.442;2024-03-08T05:50:18;94094.22;;;-0.86;100.00
11487;BME280;10510;47.942;9.442;2024-03-08T05:52:19;94092.38;;;-0.84;100.00
11487;BME280;10510;47.942;9.442;2024-03-08T05:54:19;94098.19;;;-0.82;100.00
11487;BME280;10510;47.942;9.442;2024-03-08T05:56:22;94095.63;;;-0.82;100.00
11487;BME280;10510;47.942;9.442;2024-03-08T05:58:24;94108.47;;;-0.82;100.00
11487;BME280;10510;47.942;9.442;2024-03-08T06:00:24;94097.34;;;-0.83;100.00
11487;BME280;10510;47.942;9.442;2024-03-08T06:02:26;94099.09;;;-0.83;100.00
11487;BME280;10510;47.942;9.442;2024-03-08T06:04:26;94093.97;;;-0.83;100.00
11487;BME280;10510;47.942;9.442;2024-03-08T06:06:27;94094.94;;;-0.84;100.00
11487;BME280;10510;47.942;9.442;2024-03-08T06:08:28;94093.88;;;-0.82;100.00
11487;BME280;10510;47.942;9.442;2024-03-08T06:10:29;94089.53;;;-0.81;100.00
11487;BME280;10510;47.942;9.442;2024-03-08T06:12:30;94083.47;;;-0.80;100.00
11487;BME280;10510;47.942;9.442;2024-03-08T06:14:33;94080.78;;;-0.79;100.00
11487;BME280;10510;47.942;9.442;2024-03-08T06:16:34;94080.88;;;-0.80;100.00
11487;BME280;10510;47.942;9.442;2024-03-08T06:18:36;94083.19;;;-0.77;100.00
11487;BME280;10510;47.942;9.442;2024-03-08T06:20:42;94091.16;;;-0.80;100.00
11487;BME280;10510;47.942;9.442;2024-03-08T06:22:43;94092.09;;;-0.81;100.00
11487;BME280;10510;47.942;9.442;2024-03-08T06:24:45;94077.66;;;-0.82;100.00
11487;BME280;10510;47.942;9.442;2024-03-08T06:26:45;94092.22;;;-0.83;100.00
11487;BME280;10510;47.942;9.442;2024-03-08T06:28:45;94096.44;;;-0.82;100.00
11487;BME280;10510;47.942;9.442;2024-03-08T06:30:46;94084.66;;;-0.84;100.00
11487;BME280;10510;47.942;9.442;2024-03-08T06:32:46;94094.22;;;-0.86;100.00
11487;BME280;10510;47.942;9.442;2024-03-08T06:34:46;94101.13;;;-0.87;100.00
11487;BME280;10510;47.942;9.442;2024-03-08T06:36:47;94098.41;;;-0.85;100.00
11487;BME280;10510;47.942;9.442;2024-03-08T06:38:51;94095.03;;;-0.86;100.00
11487;BME280;10510;47.942;9.442;2024-03-08T06:40:52;94084.13;;;-0.88;100.00
11487;BME280;10510;47.942;9.442;2024-03-08T06:42:52;94095.03;;;-0.86;100.00
11487;BME280;10510;47.942;9.442;2024-03-08T06:44:53;94083.03;;;-0.85;100.00
11487;BME280;10510;47.942;9.442;2024-03-08T06:46:56;94095.84;;;-0.85;100.00
11487;BME280;10510;47.942;9.442;2024-03-08T06:48:56;94089.09;;;-0.86;100.00
11487;BME280;10510;47.942;9.442;2024-03-08T06:50:56;94093.97;;;-0.83;100.00
11487;BME280;10510;47.942;9.442;2024-03-08T06:52:57;94100.75;;;-0.82;100.00
11487;BME280;10510;47.942;9.442;2024-03-08T06:54:57;94099.81;;;-0.81;100.00
11487;BME280;10510;47.942;9.442;2024-03-08T06:56:58;94101.41;;;-0.80;100.00
11487;BME280;10510;47.942;9.442;2024-03-08T06:58:58;94098.59;;;-0.77;100.00
11487;BME280;10510;47.942;9.442;2024-03-08T07:00:58;94097.69;;;-0.76;100.00
11487;BME280;10510;47.942;9.442;2024-03-08T07:03:00;94103.88;;;-0.79;100.00
11487;BME280;10510;47.942;9.442;2024-03-08T07:05:01;94103.97;;;-0.80;100.00
11487;BME280;10510;47.942;9.442;2024-03-08T07:07:04;94098.75;;;-0.79;100.00
11487;BME280;10510;47.942;9.442;2024-03-08T07:09:05;94100.25;;;-0.76;100.00
11487;BME280;10510;47.942;9.442;2024-03-08T07:11:05;94089.97;;;-0.76;100.00
11487;BME280;10510;47.942;9.442;2024-03-08T07:13:05;94094.28;;;-0.77;100.00
11487;BME280;10510;47.942;9.442;2024-03-08T07:15:06;94088.47;;;-0.79;100.00
11487;BME280;10510;47.942;9.442;2024-03-08T07:17:07;94080.88;;;-0.80;100.00
11487;BME280;10510;47.942;9.442;2024-03-08T07:19:09;94090.25;;;-0.79;100.00
11487;BME280;10510;47.942;9.442;2024-03-08T07:21:09;94080.78;;;-0.79;100.00
11487;BME280;10510;47.942;9.442;2024-03-08T07:23:13;94079.13;;;-0.80;100.00
11487;BME280;10510;47.942;9.442;2024-03-08T07:25:33;94078.75;;;-0.75;100.00
11487;BME280;10510;47.942;9.442;2024-03-08T07:27:35;94079.47;;;-0.73;100.00
11487;BME280;10510;47.942;9.442;2024-03-08T07:29:36;94080.97;;;-0.71;100.00
11487;BME280;10510;47.942;9.442;2024-03-08T07:31:36;94081.88;;;-0.72;100.00
11487;BME280;10510;47.942;9.442;2024-03-08T07:34:06;94074.97;;;-0.71;100.00
11487;BME280;10510;47.942;9.442;2024-03-08T07:36:07;94080.38;;;-0.74;100.00
11487;BME280;10510;47.942;9.442;2024-03-08T07:38:08;94076.31;;;-0.77;100.00
11487;BME280;10510;47.942;9.442;2024-03-08T07:40:10;94084.97;;;-0.78;100.00
11487;BME280;10510;47.942;9.442;2024-03-08T07:42:10;94080.53;;;-0.76;100.00
11487;BME280;10510;47.942;9.442;2024-03-08T07:44:11;94084.59;;;-0.73;100.00
11487;BME280;10510;47.942;9.442;2024-03-08T07:46:14;94078.38;;;-0.71;100.00
11487;BME280;10510;47.942;9.442;2024-03-08T07:48:14;94085.00;;;-0.68;100.00
11487;BME280;10510;47.942;9.442;2024-03-08T07:50:16;94085.84;;;-0.67;100.00
11487;BME280;10510;47.942;9.442;2024-03-08T07:52:17;94077.28;;;-0.68;100.00
11487;BME280;10510;47.942;9.442;2024-03-08T07:54:18;94072.16;;;-0.68;100.00
11487;BME280;10510;47.942;9.442;2024-03-08T07:56:18;94073.53;;;-0.64;100.00
11487;BME280;10510;47.942;9.442;2024-03-08T07:58:19;94070.72;;;-0.61;100.00
11487;BME280;10510;47.942;9.442;2024-03-08T08:00:20;94079.13;;;-0.59;100.00
11487;BME280;10510;47.942;9.442;2024-03-08T08:02:22;94074.63;;;-0.57;100.00
11487;BME280;10510;47.942;9.442;2024-03-08T08:04:22;94074.63;;;-0.57;100.00
11487;BME280;10510;47.942;9.442;2024-03-08T08:06:24;94071.41;;;-0.59;100.00
11487;BME280;10510;47.942;9.442;2024-03-08T08:08:25;94075.44;;;-0.56;100.00
11487;BME280;10510;47.942;9.442;2024-03-08T08:10:26;94080.22;;;-0.52;100.00
11487;BME280;10510;47.942;9.442;2024-03-08T08:12:28;94074.13;;;-0.51;100.00
11487;BME280;10510;47.942;9.442;2024-03-08T08:14:29;94072.63;;;-0.53;100.00
11487;BME280;10510;47.942;9.442;2024-03-08T08:16:30;94070.06;;;-0.53;100.00
11487;BME280;10510;47.942;9.442;2024-03-08T08:18:35;94075.06;;;-0.52;100.00
11487;BME280;10510;47.942;9.442;2024-03-08T08:20:35;94064.91;;;-0.53;100.00
11487;BME280;10510;47.942;9.442;2024-03-08T08:22:36;94064.81;;;-0.52;100.00
11487;BME280;10510;47.942;9.442;2024-03-08T08:24:36;94053.03;;;-0.54;100.00
11487;BME280;10510;47.942;9.442;2024-03-08T08:26:37;94061.88;;;-0.47;100.00
11487;BME280;10510;47.942;9.442;2024-03-08T08:28:37;94061.06;;;-0.38;100.00
11487;BME280;10510;47.942;9.442;2024-03-08T08:30:38;94066.59;;;-0.33;100.00
11487;BME280;10510;47.942;9.442;2024-03-08T08:32:38;94056.91;;;-0.29;100.00
11487;BME280;10510;47.942;9.442;2024-03-08T08:34:39;94052.44;;;-0.27;100.00
11487;BME280;10510;47.942;9.442;2024-03-08T08:36:39;94055.81;;;-0.27;100.00
11487;BME280;10510;47.942;9.442;2024-03-08T08:38:40;94053.66;;;-0.21;100.00
11487;BME280;10510;47.942;9.442;2024-03-08T08:40:42;94055.59;;;-0.14;100.00
11487;BME280;10510;47.942;9.442;2024-03-08T08:42:43;94056.00;;;-0.09;100.00
11487;BME280;10510;47.942;9.442;2024-03-08T08:44:43;94051.78;;;-0.10;100.00
11487;BME280;10510;47.942;9.442;2024-03-08T08:46:43;94051.13;;;-0.12;100.00
11487;BME280;10510;47.942;9.442;2024-03-08T08:48:44;94043.28;;;-0.10;100.00
11487;BME280;10510;47.942;9.442;2024-03-08T08:50:47;94050.34;;;-0.03;100.00
11487;BME280;10510;47.942;9.442;2024-03-08T08:52:48;94044.66;;;0.04;100.00
11487;BME280;10510;47.942;9.442;2024-03-08T08:54:48;94041.56;;;0.10;100.00
11487;BME280;10510;47.942;9.442;2024-03-08T08:56:50;94041.97;;;0.15;100.00
11487;BME280;10510;47.942;9.442;2024-03-08T08:58:50;94041.28;;;0.13;100.00
11487;BME280;10510;47.942;9.442;2024-03-08T09:00:50;94037.75;;;0.14;100.00
11487;BME280;10510;47.942;9.442;2024-03-08T09:02:52;94038.72;;;0.13;100.00
11487;BME280;10510;47.942;9.442;2024-03-08T09:04:55;94033.56;;;0.13;100.00
11487;BME280;10510;47.942;9.442;2024-03-08T09:06:55;94033.31;;;0.16;100.00
11487;BME280;10510;47.942;9.442;2024-03-08T09:08:56;94031.53;;;0.16;100.00
11487;BME280;10510;47.942;9.442;2024-03-08T09:10:57;94039.94;;;0.18;100.00
11487;BME280;10510;47.942;9.442;2024-03-08T09:12:59;94033.16;;;0.17;100.00
11487;BME280;10510;47.942;9.442;2024-03-08T09:15:00;94035.44;;;0.20;100.00
11487;BME280;10510;47.942;9.442;2024-03-08T09:17:00;94034.66;;;0.20;100.00
11487;BME280;10510;47.942;9.442;2024-03-08T09:19:00;94033.56;;;0.22;100.00
11487;BME280;10510;47.942;9.442;2024-03-08T09:21:01;94030.31;;;0.20;100.00
11487;BME280;10510;47.942;9.442;2024-03-08T09:23:01;94031.94;;;0.21;100.00
11487;BME280;10510;47.942;9.442;2024-03-08T09:25:02;94030.59;;;0.27;100.00
11487;BME280;10510;47.942;9.442;2024-03-08T09:27:05;94029.09;;;0.34;100.00
11487;BME280;10510;47.942;9.442;2024-03-08T09:29:05;94025.31;;;0.38;100.00
11487;BME280;10510;47.942;9.442;2024-03-08T09:31:07;94024.78;;;0.44;100.00
11487;BME280;10510;47.942;9.442;2024-03-08T09:33:07;94026.00;;;0.50;100.00
11487;BME280;10510;47.942;9.442;2024-03-08T09:35:08;94023.81;;;0.55;100.00
11487;BME280;10510;47.942;9.442;2024-03-08T09:37:08;94019.19;;;0.59;100.00
11487;BME280;10510;47.942;9.442;2024-03-08T09:39:09;94014.44;;;0.64;100.00
11487;BME280;10510;47.942;9.442;2024-03-08T09:41:09;94021.50;;;0.72;100.00
11487;BME280;10510;47.942;9.442;2024-03-08T09:43:10;94019.72;;;0.72;100.00
11487;BME280;10510;47.942;9.442;2024-03-08T09:45:13;94014.81;;;0.79;100.00
11487;BME280;10510;47.942;9.442;2024-03-08T09:47:17;94016.31;;;0.81;100.00
11487;BME280;10510;47.942;9.442;2024-03-08T09:49:18;94017.53;;;0.87;100.00
11487;BME280;10510;47.942;9.442;2024-03-08T09:51:21;94017.91;;;0.92;100.00
11487;BME280;10510;47.942;9.442;2024-03-08T09:53:23;94013.03;;;0.99;100.00
11487;BME280;10510;47.942;9.442;2024-03-08T09:55:25;94001.91;;;0.98;100.00
11487;BME280;10510;47.942;9.442;2024-03-08T09:57:28;94007.75;;;1.00;100.00
11487;BME280;10510;47.942;9.442;2024-03-08T09:59:29;93999.88;;;1.02;100.00
11487;BME280;10510;47.942;9.442;2024-03-08T10:01:38;94006.50;;;1.04;100.00
11487;BME280;10510;47.942;9.442;2024-03-08T10:03:39;93998.63;;;1.06;100.00
11487;BME280;10510;47.942;9.442;2024-03-08T10:05:41;93999.03;;;1.11;100.00
11487;BME280;10510;47.942;9.442;2024-03-08T10:07:41;94002.28;;;1.13;100.00
11487;BME280;10510;47.942;9.442;2024-03-08T10:09:42;93991.97;;;1.13;100.00
11487;BME280;10510;47.942;9.442;2024-03-08T10:11:49;94000.22;;;1.17;100.00
11487;BME280;10510;47.942;9.442;2024-03-08T10:13:49;93980.81;;;1.22;100.00
11487;BME280;10510;47.942;9.442;2024-03-08T10:15:50;93982.16;;;1.26;100.00
11487;BME280;10510;47.942;9.442;2024-03-08T10:17:51;93975.09;;;1.28;100.00
11487;BME280;10510;47.942;9.442;2024-03-08T10:19:53;93975.91;;;1.29;100.00
11487;BME280;10510;47.942;9.442;2024-03-08T10:21:53;93974.69;;;1.33;100.00
11487;BME280;10510;47.942;9.442;2024-03-08T10:23:55;93972.19;;;1.41;100.00
11487;BME280;10510;47.942;9.442;2024-03-08T10:25:56;93970.81;;;1.47;100.00
11487;BME280;10510;47.942;9.442;2024-03-08T10:27:58;93973.91;;;1.50;100.00
11487;BME280;10510;47.942;9.442;2024-03-08T10:29:58;93976.50;;;1.50;100.00
11487;BME280;10510;47.942;9.442;2024-03-08T10:31:59;93970.50;;;1.50;100.00
11487;BME280;10510;47.942;9.442;2024-03-08T10:33:59;93970.38;;;1.51;100.00
11487;BME280;10510;47.942;9.442;2024-03-08T10:36:01;93976.84;;;1.55;100.00
11487;BME280;10510;47.942;9.442;2024-03-08T10:38:04;93969.97;;;1.56;100.00
11487;BME280;10510;47.942;9.442;2024-03-08T10:40:08;93969.00;;;1.57;100.00
11487;BME280;10510;47.942;9.442;2024-03-08T10:42:16;93963.94;;;1.65;100.00